sensor_id;sensor_type;location;lat;lon;timestamp;pressure;altitude;pressure_sealevel;temperature;humidity
13013;BME280;22580;57.670;12.006;2023-09-19T00:00:36;99498.22;;;28.63;90.57
13013;BME280;22580;57.670;12.006;2023-09-19T00:03:03;99502.81;;;28.80;90.47
13013;BME280;22580;57.670;12.006;2023-09-19T00:05:34;99488.53;;;28.56;90.74
13013;BME280;22580;57.670;12.006;2023-09-19T00:08:04;99492.25;;;28.71;90.09
13013;BME280;22580;57.670;12.006;2023-09-19T00:10:33;99480.63;;;28.64;90.40
13013;BME280;22580;57.670;12.006;2023-09-19T00:13:02;99472.56;;;28.80;90.03
13013;BME280;22580;57.670;12.006;2023-09-19T00:15:39;99473.78;;;28.67;90.55
13013;BME280;22580;57.670;12.006;2023-09-19T00:18:06;99446.97;;;28.52;90.68
13013;BME280;22580;57.670;12.006;2023-09-19T00:20:36;99465.53;;;28.89;89.57
13013;BME280;22580;57.670;12.006;2023-09-19T00:23:03;99472.28;;;28.81;89.85
13013;BME280;22580;57.670;12.006;2023-09-19T00:25:34;99470.06;;;28.51;90.74
13013;BME280;22580;57.670;12.006;2023-09-19T00:28:04;99475.38;;;28.36;92.33
13013;BME280;22580;57.670;12.006;2023-09-19T00:30:32;99470.97;;;28.35;92.25
13013;BME280;22580;57.670;12.006;2023-09-19T00:33:02;99464.50;;;28.46;91.49
13013;BME280;22580;57.670;12.006;2023-09-19T00:35:34;99464.91;;;28.33;92.48
13013;BME280;22580;57.670;12.006;2023-09-19T00:38:03;99457.34;;;28.23;92.48
13013;BME280;22580;57.670;12.006;2023-09-19T00:40:32;99421.53;;;28.18;91.85
13013;BME280;22580;57.670;12.006;2023-09-19T00:43:00;99452.00;;;28.17;93.07
13013;BME280;22580;57.670;12.006;2023-09-19T00:45:28;99446.75;;;28.32;92.21
13013;BME280;22580;57.670;12.006;2023-09-19T00:47:55;99445.25;;;28.46;91.21
13013;BME280;22580;57.670;12.006;2023-09-19T00:50:26;99439.88;;;28.56;90.86
13013;BME280;22580;57.670;12.006;2023-09-19T00:52:58;99433.19;;;28.25;92.16
13013;BME280;22580;57.670;12.006;2023-09-19T00:55:27;99432.56;;;28.40;91.60
13013;BME280;22580;57.670;12.006;2023-09-19T00:57:58;99422.97;;;28.43;91.51
13013;BME280;22580;57.670;12.006;2023-09-19T01:00:25;99425.47;;;28.22;92.15
13013;BME280;22580;57.670;12.006;2023-09-19T01:02:54;99419.50;;;28.30;91.63
13013;BME280;22580;57.670;12.006;2023-09-19T01:05:21;99408.59;;;28.35;91.11
13013;BME280;22580;57.670;12.006;2023-09-19T01:07:52;99408.81;;;28.56;90.49
13013;BME280;22580;57.670;12.006;2023-09-19T01:10:20;99405.94;;;28.72;89.25
13013;BME280;22580;57.670;12.006;2023-09-19T01:12:55;99399.72;;;28.55;89.97
13013;BME280;22580;57.670;12.006;2023-09-19T01:15:31;99395.09;;;28.88;88.85
13013;BME280;22580;57.670;12.006;2023-09-19T01:18:05;99391.19;;;29.11;88.15
13013;BME280;22580;57.670;12.006;2023-09-19T01:20:40;99384.72;;;28.95;87.89
13013;BME280;22580;57.670;12.006;2023-09-19T01:23:22;99375.09;;;28.97;88.25
13013;BME280;22580;57.670;12.006;2023-09-19T01:26:05;99376.09;;;28.11;91.32
13013;BME280;22580;57.670;12.006;2023-09-19T01:28:51;99377.84;;;28.70;89.21
13013;BME280;22580;57.670;12.006;2023-09-19T01:31:24;99364.19;;;28.81;88.81
13013;BME280;22580;57.670;12.006;2023-09-19T01:33:56;99367.94;;;28.69;88.97
13013;BME280;22580;57.670;12.006;2023-09-19T01:36:24;99354.78;;;28.71;88.77
13013;BME280;22580;57.670;12.006;2023-09-19T01:38:55;99355.72;;;28.82;88.57
13013;BME280;22580;57.670;12.006;2023-09-19T01:41:29;99348.88;;;28.85;88.37
13013;BME280;22580;57.670;12.006;2023-09-19T01:44:03;99347.88;;;28.96;87.93
13013;BME280;22580;57.670;12.006;2023-09-19T01:46:40;99350.66;;;29.01;87.82
13013;BME280;22580;57.670;12.006;2023-09-19T01:49:18;99358.81;;;28.59;89.58
13013;BME280;22580;57.670;12.006;2023-09-19T01:51:59;99343.13;;;28.32;90.55
13013;BME280;22580;57.670;12.006;2023-09-19T01:54:33;99338.69;;;28.26;91.21
13013;BME280;22580;57.670;12.006;2023-09-19T01:57:09;99343.78;;;27.96;91.93
13013;BME280;22580;57.670;12.006;2023-09-19T01:59:43;99338.78;;;28.36;90.94
13013;BME280;22580;57.670;12.006;2023-09-19T02:02:15;99338.47;;;28.60;90.24
13013;BME280;22580;57.670;12.006;2023-09-19T02:04:44;99331.69;;;28.72;89.61
13013;BME280;22580;57.670;12.006;2023-09-19T02:07:12;99334.38;;;28.67;89.24
13013;BME280;22580;57.670;12.006;2023-09-19T02:09:42;99325.53;;;28.60;89.53
13013;BME280;22580;57.670;12.006;2023-09-19T02:12:10;99303.41;;;28.45;90.15
13013;BME280;22580;57.670;12.006;2023-09-19T02:14:38;99312.38;;;27.87;92.60
13013;BME280;22580;57.670;12.006;2023-09-19T02:17:05;99295.88;;;28.67;89.94
13013;BME280;22580;57.670;12.006;2023-09-19T02:19:38;99283.19;;;28.61;90.21
13013;BME280;22580;57.670;12.006;2023-09-19T02:22:07;99274.91;;;28.88;88.87
13013;BME280;22580;57.670;12.006;2023-09-19T02:24:35;99284.88;;;28.99;88.27
13013;BME280;22580;57.670;12.006;2023-09-19T02:27:03;99282.53;;;28.81;88.55
13013;BME280;22580;57.670;12.006;2023-09-19T02:29:31;99261.47;;;28.92;88.30
13013;BME280;22580;57.670;12.006;2023-09-19T02:31:59;99264.22;;;28.92;88.04
13013;BME280;22580;57.670;12.006;2023-09-19T02:34:27;99274.69;;;28.95;88.09
13013;BME280;22580;57.670;12.006;2023-09-19T02:36:57;99275.78;;;28.62;89.57
13013;BME280;22580;57.670;12.006;2023-09-19T02:39:32;99264.47;;;28.53;89.43
13013;BME280;22580;57.670;12.006;2023-09-19T02:41:59;99259.75;;;28.49;89.48
13013;BME280;22580;57.670;12.006;2023-09-19T02:44:27;99258.25;;;28.73;88.41
13013;BME280;22580;57.670;12.006;2023-09-19T02:46:56;99260.75;;;28.75;88.27
13013;BME280;22580;57.670;12.006;2023-09-19T02:49:23;99246.09;;;28.59;87.77
13013;BME280;22580;57.670;12.006;2023-09-19T02:51:52;99248.69;;;28.17;90.01
13013;BME280;22580;57.670;12.006;2023-09-19T02:54:21;99244.28;;;28.16;89.52
13013;BME280;22580;57.670;12.006;2023-09-19T02:56:50;99246.88;;;28.00;90.17
13013;BME280;22580;57.670;12.006;2023-09-19T02:59:19;99240.34;;;28.06;89.88
13013;BME280;22580;57.670;12.006;2023-09-19T03:01:47;99233.81;;;28.13;89.74
13013;BME280;22580;57.670;12.006;2023-09-19T03:04:16;99232.13;;;28.33;88.47
13013;BME280;22580;57.670;12.006;2023-09-19T03:06:46;99226.66;;;28.12;88.29
13013;BME280;22580;57.670;12.006;2023-09-19T03:09:17;99217.69;;;28.21;87.58
13013;BME280;22580;57.670;12.006;2023-09-19T03:11:46;99214.66;;;27.91;88.87
13013;BME280;22580;57.670;12.006;2023-09-19T03:14:15;99213.16;;;27.78;89.43
13013;BME280;22580;57.670;12.006;2023-09-19T03:16:42;99208.13;;;28.24;86.97
13013;BME280;22580;57.670;12.006;2023-09-19T03:19:10;99201.63;;;28.77;85.36
13013;BME280;22580;57.670;12.006;2023-09-19T03:21:37;99197.59;;;28.85;84.50
13013;BME280;22580;57.670;12.006;2023-09-19T03:24:05;99205.22;;;28.08;86.94
13013;BME280;22580;57.670;12.006;2023-09-19T03:26:32;99200.88;;;27.86;88.20
13013;BME280;22580;57.670;12.006;2023-09-19T03:29:03;99195.78;;;27.99;87.82
13013;BME280;22580;57.670;12.006;2023-09-19T03:31:33;99190.38;;;28.10;87.37
13013;BME280;22580;57.670;12.006;2023-09-19T03:34:03;99185.13;;;27.76;87.96
13013;BME280;22580;57.670;12.006;2023-09-19T03:36:30;99172.47;;;27.75;88.32
13013;BME280;22580;57.670;12.006;2023-09-19T03:38:59;99179.72;;;27.86;87.86
13013;BME280;22580;57.670;12.006;2023-09-19T03:41:27;99185.03;;;27.66;87.84
13013;BME280;22580;57.670;12.006;2023-09-19T03:43:56;99181.81;;;27.74;87.86
13013;BME280;22580;57.670;12.006;2023-09-19T03:46:25;99182.56;;;27.64;87.84
13013;BME280;22580;57.670;12.006;2023-09-19T03:48:52;99181.97;;;27.89;86.79
13013;BME280;22580;57.670;12.006;2023-09-19T03:51:20;99184.13;;;27.87;86.08
13013;BME280;22580;57.670;12.006;2023-09-19T03:53:47;99182.16;;;27.83;86.47
13013;BME280;22580;57.670;12.006;2023-09-19T03:56:15;99184.00;;;27.72;86.24
13013;BME280;22580;57.670;12.006;2023-09-19T03:58:42;99185.16;;;27.32;88.10
13013;BME280;22580;57.670;12.006;2023-09-19T04:01:10;99169.09;;;27.63;86.98
13013;BME280;22580;57.670;12.006;2023-09-19T04:03:42;99171.06;;;27.24;88.23
13013;BME280;22580;57.670;12.006;2023-09-19T04:06:13;99162.53;;;27.96;85.53
13013;BME280;22580;57.670;12.006;2023-09-19T04:08:41;99163.66;;;28.27;84.20
13013;BME280;22580;57.670;12.006;2023-09-19T04:11:11;99171.31;;;27.00;88.95
13013;BME280;22580;57.670;12.006;2023-09-19T04:13:38;99146.56;;;27.61;86.81
13013;BME280;22580;57.670;12.006;2023-09-19T04:16:06;99178.91;;;27.15;88.07
13013;BME280;22580;57.670;12.006;2023-09-19T04:18:34;99169.81;;;26.54;90.65
13013;BME280;22580;57.670;12.006;2023-09-19T04:21:05;99174.25;;;27.37;88.58
13013;BME280;22580;57.670;12.006;2023-09-19T04:23:34;99171.75;;;27.58;87.55
13013;BME280;22580;57.670;12.006;2023-09-19T04:26:01;99164.75;;;27.23;88.77
13013;BME280;22580;57.670;12.006;2023-09-19T04:28:29;99155.69;;;27.45;87.68
13013;BME280;22580;57.670;12.006;2023-09-19T04:30:56;99149.75;;;27.09;88.70
13013;BME280;22580;57.670;12.006;2023-09-19T04:33:25;99146.41;;;27.51;87.94
13013;BME280;22580;57.670;12.006;2023-09-19T04:35:54;99141.84;;;27.34;88.59
13013;BME280;22580;57.670;12.006;2023-09-19T04:38:23;99160.59;;;27.42;87.58
13013;BME280;22580;57.670;12.006;2023-09-19T04:40:50;99155.41;;;27.46;87.06
13013;BME280;22580;57.670;12.006;2023-09-19T04:43:23;99180.44;;;27.06;87.54
13013;BME280;22580;57.670;12.006;2023-09-19T04:45:51;99173.56;;;27.03;86.95
13013;BME280;22580;57.670;12.006;2023-09-19T04:48:21;99186.25;;;26.71;87.61
13013;BME280;22580;57.670;12.006;2023-09-19T04:50:49;99181.78;;;26.87;85.40
13013;BME280;22580;57.670;12.006;2023-09-19T04:53:16;99194.81;;;26.58;85.98
13013;BME280;22580;57.670;12.006;2023-09-19T04:55:51;99208.78;;;26.39;84.80
13013;BME280;22580;57.670;12.006;2023-09-19T04:58:22;99213.09;;;26.52;83.50
13013;BME280;22580;57.670;12.006;2023-09-19T05:00:49;99210.94;;;26.93;82.37
13013;BME280;22580;57.670;12.006;2023-09-19T05:03:17;99207.34;;;26.70;82.74
13013;BME280;22580;57.670;12.006;2023-09-19T05:05:46;99228.69;;;26.85;81.96
13013;BME280;22580;57.670;12.006;2023-09-19T05:08:13;99214.06;;;26.29;82.20
13013;BME280;22580;57.670;12.006;2023-09-19T05:10:40;99220.22;;;26.70;81.06
13013;BME280;22580;57.670;12.006;2023-09-19T05:13:08;99225.41;;;26.88;78.90
13013;BME280;22580;57.670;12.006;2023-09-19T05:15:38;99233.59;;;26.04;80.41
13013;BME280;22580;57.670;12.006;2023-09-19T05:18:05;99245.56;;;26.15;81.58
13013;BME280;22580;57.670;12.006;2023-09-19T05:20:33;99240.00;;;26.72;80.25
13013;BME280;22580;57.670;12.006;2023-09-19T05:23:04;99225.63;;;26.31;78.16
13013;BME280;22580;57.670;12.006;2023-09-19T05:25:34;99224.06;;;26.07;80.40
13013;BME280;22580;57.670;12.006;2023-09-19T05:28:05;99235.50;;;26.49;79.96
13013;BME280;22580;57.670;12.006;2023-09-19T05:30:36;99225.50;;;26.26;78.17
13013;BME280;22580;57.670;12.006;2023-09-19T05:33:05;99238.97;;;26.28;79.12
13013;BME280;22580;57.670;12.006;2023-09-19T05:35:33;99222.97;;;26.36;79.57
13013;BME280;22580;57.670;12.006;2023-09-19T05:38:00;99232.09;;;26.59;77.42
13013;BME280;22580;57.670;12.006;2023-09-19T05:40:26;99235.09;;;26.74;77.41
13013;BME280;22580;57.670;12.006;2023-09-19T05:42:54;99241.56;;;26.68;77.47
13013;BME280;22580;57.670;12.006;2023-09-19T05:45:22;99238.50;;;26.02;79.39
13013;BME280;22580;57.670;12.006;2023-09-19T05:47:51;99252.31;;;25.79;80.55
13013;BME280;22580;57.670;12.006;2023-09-19T05:50:21;99265.28;;;25.84;80.91
13013;BME280;22580;57.670;12.006;2023-09-19T05:52:53;99243.66;;;25.19;80.82
13013;BME280;22580;57.670;12.006;2023-09-19T05:55:21;99275.06;;;25.79;79.63
13013;BME280;22580;57.670;12.006;2023-09-19T05:57:51;99271.53;;;25.67;78.58
13013;BME280;22580;57.670;12.006;2023-09-19T06:00:24;99262.41;;;25.90;76.77
13013;BME280;22580;57.670;12.006;2023-09-19T06:02:58;99270.59;;;25.90;76.67
13013;BME280;22580;57.670;12.006;2023-09-19T06:05:27;99291.63;;;25.49;74.92
13013;BME280;22580;57.670;12.006;2023-09-19T06:07:56;99297.56;;;25.58;74.75
13013;BME280;22580;57.670;12.006;2023-09-19T06:10:25;99292.25;;;25.28;76.78
13013;BME280;22580;57.670;12.006;2023-09-19T06:12:54;99293.34;;;24.80;77.84
13013;BME280;22580;57.670;12.006;2023-09-19T06:15:23;99303.22;;;25.16;76.14
13013;BME280;22580;57.670;12.006;2023-09-19T06:17:52;99295.97;;;24.87;77.88
13013;BME280;22580;57.670;12.006;2023-09-19T06:20:23;99316.63;;;25.53;74.99
13013;BME280;22580;57.670;12.006;2023-09-19T06:22:51;99321.16;;;25.47;74.42
13013;BME280;22580;57.670;12.006;2023-09-19T06:25:19;99315.06;;;25.69;72.69
13013;BME280;22580;57.670;12.006;2023-09-19T06:27:47;99326.94;;;25.63;74.05
13013;BME280;22580;57.670;12.006;2023-09-19T06:30:15;99329.34;;;25.71;73.10
13013;BME280;22580;57.670;12.006;2023-09-19T06:32:43;99324.47;;;25.73;74.08
13013;BME280;22580;57.670;12.006;2023-09-19T06:35:11;99320.06;;;26.00;72.80
13013;BME280;22580;57.670;12.006;2023-09-19T06:37:40;99333.22;;;25.87;73.35
13013;BME280;22580;57.670;12.006;2023-09-19T06:40:08;99340.66;;;25.39;73.63
13013;BME280;22580;57.670;12.006;2023-09-19T06:42:42;99337.69;;;25.29;74.80
13013;BME280;22580;57.670;12.006;2023-09-19T06:45:10;99339.19;;;24.67;75.40
13013;BME280;22580;57.670;12.006;2023-09-19T06:47:38;99321.75;;;25.14;74.61
13013;BME280;22580;57.670;12.006;2023-09-19T06:50:06;99331.84;;;25.61;71.86
13013;BME280;22580;57.670;12.006;2023-09-19T06:52:40;99345.16;;;26.09;70.42
13013;BME280;22580;57.670;12.006;2023-09-19T06:55:08;99329.19;;;25.89;69.82
13013;BME280;22580;57.670;12.006;2023-09-19T06:57:37;99339.41;;;25.94;69.38
13013;BME280;22580;57.670;12.006;2023-09-19T07:00:07;99341.53;;;26.20;68.62
13013;BME280;22580;57.670;12.006;2023-09-19T07:02:40;99324.03;;;25.17;70.88
13013;BME280;22580;57.670;12.006;2023-09-19T07:05:08;99347.03;;;25.92;69.29
13013;BME280;22580;57.670;12.006;2023-09-19T07:07:35;99343.06;;;26.28;68.17
13013;BME280;22580;57.670;12.006;2023-09-19T07:10:03;99333.06;;;26.22;68.63
13013;BME280;22580;57.670;12.006;2023-09-19T07:12:31;99350.38;;;25.82;68.73
13013;BME280;22580;57.670;12.006;2023-09-19T07:15:00;99359.19;;;25.61;69.87
13013;BME280;22580;57.670;12.006;2023-09-19T07:17:27;99347.19;;;25.62;68.38
13013;BME280;22580;57.670;12.006;2023-09-19T07:19:55;99341.00;;;25.66;70.88
13013;BME280;22580;57.670;12.006;2023-09-19T07:22:26;99339.09;;;25.78;70.28
13013;BME280;22580;57.670;12.006;2023-09-19T07:24:54;99359.81;;;25.28;71.72
13013;BME280;22580;57.670;12.006;2023-09-19T07:27:22;99361.34;;;25.70;70.33
13013;BME280;22580;57.670;12.006;2023-09-19T07:29:53;99366.19;;;25.92;68.91
13013;BME280;22580;57.670;12.006;2023-09-19T07:32:20;99360.13;;;26.18;66.40
13013;BME280;22580;57.670;12.006;2023-09-19T07:34:47;99339.06;;;25.90;66.66
13013;BME280;22580;57.670;12.006;2023-09-19T07:37:15;99351.38;;;25.41;63.20
13013;BME280;22580;57.670;12.006;2023-09-19T07:39:42;99356.34;;;25.79;62.98
13013;BME280;22580;57.670;12.006;2023-09-19T07:42:10;99355.16;;;25.63;64.05
13013;BME280;22580;57.670;12.006;2023-09-19T07:44:44;99362.44;;;25.23;65.80
13013;BME280;22580;57.670;12.006;2023-09-19T07:47:13;99383.00;;;25.25;63.46
13013;BME280;22580;57.670;12.006;2023-09-19T07:49:42;99402.97;;;25.26;63.02
13013;BME280;22580;57.670;12.006;2023-09-19T07:52:09;99396.72;;;24.42;66.53
13013;BME280;22580;57.670;12.006;2023-09-19T07:54:37;99394.97;;;24.89;64.29
13013;BME280;22580;57.670;12.006;2023-09-19T07:57:10;99395.44;;;24.86;64.26
13013;BME280;22580;57.670;12.006;2023-09-19T07:59:37;99384.44;;;25.04;62.86
13013;BME280;22580;57.670;12.006;2023-09-19T08:02:08;99394.06;;;25.30;62.92
13013;BME280;22580;57.670;12.006;2023-09-19T08:04:41;99398.47;;;25.31;62.16
13013;BME280;22580;57.670;12.006;2023-09-19T08:07:08;99387.63;;;25.48;60.17
13013;BME280;22580;57.670;12.006;2023-09-19T08:09:36;99384.66;;;25.38;60.76
13013;BME280;22580;57.670;12.006;2023-09-19T08:12:04;99388.47;;;25.25;62.43
13013;BME280;22580;57.670;12.006;2023-09-19T08:14:33;99403.38;;;24.88;63.36
13013;BME280;22580;57.670;12.006;2023-09-19T08:17:00;99386.81;;;25.01;61.85
13013;BME280;22580;57.670;12.006;2023-09-19T08:19:29;99397.63;;;25.42;58.12
13013;BME280;22580;57.670;12.006;2023-09-19T08:21:58;99390.97;;;25.27;58.32
13013;BME280;22580;57.670;12.006;2023-09-19T08:24:25;99385.84;;;25.30;56.15
13013;BME280;22580;57.670;12.006;2023-09-19T08:26:54;99391.69;;;25.80;55.30
13013;BME280;22580;57.670;12.006;2023-09-19T08:29:21;99393.59;;;25.68;54.44
13013;BME280;22580;57.670;12.006;2023-09-19T08:31:53;99411.91;;;25.56;55.44
13013;BME280;22580;57.670;12.006;2023-09-19T08:34:21;99414.03;;;25.42;56.70
13013;BME280;22580;57.670;12.006;2023-09-19T08:36:51;99417.41;;;25.68;56.79
13013;BME280;22580;57.670;12.006;2023-09-19T08:39:21;99422.72;;;25.39;56.56
13013;BME280;22580;57.670;12.006;2023-09-19T08:41:48;99424.78;;;25.67;56.63
13013;BME280;22580;57.670;12.006;2023-09-19T08:44:16;99418.75;;;26.05;55.91
13013;BME280;22580;57.670;12.006;2023-09-19T08:46:45;99434.16;;;25.95;56.26
13013;BME280;22580;57.670;12.006;2023-09-19T08:49:19;99435.84;;;24.96;59.84
13013;BME280;22580;57.670;12.006;2023-09-19T08:52:01;99422.03;;;25.79;58.51
13013;BME280;22580;57.670;12.006;2023-09-19T08:54:35;99430.78;;;24.99;56.95
13013;BME280;22580;57.670;12.006;2023-09-19T08:57:07;99434.97;;;25.37;56.91
13013;BME280;22580;57.670;12.006;2023-09-19T08:59:37;99441.78;;;24.93;57.56
13013;BME280;22580;57.670;12.006;2023-09-19T09:02:09;99442.22;;;25.08;56.99
13013;BME280;22580;57.670;12.006;2023-09-19T09:04:40;99451.50;;;25.30;56.42
13013;BME280;22580;57.670;12.006;2023-09-19T09:07:11;99446.03;;;24.29;58.76
13013;BME280;22580;57.670;12.006;2023-09-19T09:09:39;99434.88;;;24.90;58.09
13013;BME280;22580;57.670;12.006;2023-09-19T09:12:08;99444.34;;;25.06;57.38
13013;BME280;22580;57.670;12.006;2023-09-19T09:14:38;99460.84;;;24.21;60.24
13013;BME280;22580;57.670;12.006;2023-09-19T09:17:04;99438.63;;;24.17;61.17
13013;BME280;22580;57.670;12.006;2023-09-19T09:19:32;99454.25;;;23.92;59.49
13013;BME280;22580;57.670;12.006;2023-09-19T09:22:06;99437.47;;;23.45;59.16
13013;BME280;22580;57.670;12.006;2023-09-19T09:24:35;99456.28;;;23.78;58.92
13013;BME280;22580;57.670;12.006;2023-09-19T09:27:04;99453.53;;;24.81;54.69
13013;BME280;22580;57.670;12.006;2023-09-19T09:29:41;99448.31;;;24.32;55.15
13013;BME280;22580;57.670;12.006;2023-09-19T09:32:20;99454.75;;;24.37;55.91
13013;BME280;22580;57.670;12.006;2023-09-19T09:34:49;99452.09;;;24.79;54.87
13013;BME280;22580;57.670;12.006;2023-09-19T09:37:20;99454.06;;;24.42;53.67
13013;BME280;22580;57.670;12.006;2023-09-19T09:39:53;99443.72;;;24.62;52.85
13013;BME280;22580;57.670;12.006;2023-09-19T09:42:32;99441.50;;;25.24;52.03
13013;BME280;22580;57.670;12.006;2023-09-19T09:45:17;99444.16;;;25.54;51.46
13013;BME280;22580;57.670;12.006;2023-09-19T09:47:46;99438.47;;;25.79;50.05
13013;BME280;22580;57.670;12.006;2023-09-19T09:50:28;99446.97;;;25.01;51.27
13013;BME280;22580;57.670;12.006;2023-09-19T09:53:04;99461.13;;;25.33;50.01
13013;BME280;22580;57.670;12.006;2023-09-19T09:55:58;99447.75;;;25.66;49.61
13013;BME280;22580;57.670;12.006;2023-09-19T09:58:26;99482.72;;;24.99;49.37
13013;BME280;22580;57.670;12.006;2023-09-19T10:00:55;99461.88;;;23.65;53.22
13013;BME280;22580;57.670;12.006;2023-09-19T10:03:31;99480.19;;;24.01;55.53
13013;BME280;22580;57.670;12.006;2023-09-19T10:06:00;99467.88;;;24.47;55.65
13013;BME280;22580;57.670;12.006;2023-09-19T10:08:57;99497.84;;;24.35;55.37
13013;BME280;22580;57.670;12.006;2023-09-19T10:11:32;99475.63;;;24.13;56.37
13013;BME280;22580;57.670;12.006;2023-09-19T10:14:06;99498.84;;;24.23;59.42
13013;BME280;22580;57.670;12.006;2023-09-19T10:16:40;99491.41;;;24.11;61.42
13013;BME280;22580;57.670;12.006;2023-09-19T10:19:07;99497.00;;;24.35;63.01
13013;BME280;22580;57.670;12.006;2023-09-19T10:21:36;99497.75;;;24.60;62.06
13013;BME280;22580;57.670;12.006;2023-09-19T10:24:05;99489.25;;;24.50;59.08
13013;BME280;22580;57.670;12.006;2023-09-19T10:26:37;99485.03;;;24.36;59.87
13013;BME280;22580;57.670;12.006;2023-09-19T10:29:09;99496.72;;;24.43;59.69
13013;BME280;22580;57.670;12.006;2023-09-19T10:31:38;99505.66;;;24.50;59.83
13013;BME280;22580;57.670;12.006;2023-09-19T10:34:13;99491.63;;;24.46;59.05
13013;BME280;22580;57.670;12.006;2023-09-19T10:36:44;99515.53;;;24.33;58.38
13013;BME280;22580;57.670;12.006;2023-09-19T10:39:14;99505.50;;;23.90;57.57
13013;BME280;22580;57.670;12.006;2023-09-19T10:41:49;99505.34;;;24.58;58.90
13013;BME280;22580;57.670;12.006;2023-09-19T10:44:21;99510.81;;;24.88;58.03
13013;BME280;22580;57.670;12.006;2023-09-19T10:46:51;99523.13;;;24.97;55.26
13013;BME280;22580;57.670;12.006;2023-09-19T10:49:19;99508.50;;;24.73;55.30
13013;BME280;22580;57.670;12.006;2023-09-19T10:51:47;99500.00;;;25.23;53.71
13013;BME280;22580;57.670;12.006;2023-09-19T10:54:18;99501.94;;;25.34;51.54
13013;BME280;22580;57.670;12.006;2023-09-19T10:56:49;99507.41;;;25.34;52.07
13013;BME280;22580;57.670;12.006;2023-09-19T10:59:18;99517.06;;;25.48;51.94
13013;BME280;22580;57.670;12.006;2023-09-19T11:01:48;99541.16;;;25.28;47.44
13013;BME280;22580;57.670;12.006;2023-09-19T11:04:27;99535.50;;;25.53;45.84
13013;BME280;22580;57.670;12.006;2023-09-19T11:07:02;99535.88;;;25.15;46.47
13013;BME280;22580;57.670;12.006;2023-09-19T11:09:44;99548.41;;;24.93;44.88
13013;BME280;22580;57.670;12.006;2023-09-19T11:12:49;99556.88;;;24.73;46.77
13013;BME280;22580;57.670;12.006;2023-09-19T11:18:52;99557.94;;;24.72;50.75
13013;BME280;22580;57.670;12.006;2023-09-19T11:21:52;99541.91;;;25.35;48.84
13013;BME280;22580;57.670;12.006;2023-09-19T11:24:28;99531.69;;;25.42;47.96
13013;BME280;22580;57.670;12.006;2023-09-19T11:27:14;99539.84;;;25.84;46.79
13013;BME280;22580;57.670;12.006;2023-09-19T11:29:43;99541.97;;;26.05;44.20
13013;BME280;22580;57.670;12.006;2023-09-19T11:32:10;99553.31;;;25.97;42.88
13013;BME280;22580;57.670;12.006;2023-09-19T11:34:42;99545.53;;;26.41;44.83
13013;BME280;22580;57.670;12.006;2023-09-19T11:40:28;99551.16;;;25.76;44.00
13013;BME280;22580;57.670;12.006;2023-09-19T11:42:57;99549.91;;;26.54;44.94
13013;BME280;22580;57.670;12.006;2023-09-19T11:48:31;99556.66;;;27.60;43.23
13013;BME280;22580;57.670;12.006;2023-09-19T11:51:01;99570.47;;;27.36;42.47
13013;BME280;22580;57.670;12.006;2023-09-19T11:53:42;99568.13;;;27.28;42.73
13013;BME280;22580;57.670;12.006;2023-09-19T11:56:10;99575.94;;;27.20;42.91
13013;BME280;22580;57.670;12.006;2023-09-19T11:58:41;99577.06;;;26.95;42.76
13013;BME280;22580;57.670;12.006;2023-09-19T12:01:11;99584.44;;;26.78;43.45
13013;BME280;22580;57.670;12.006;2023-09-19T12:03:46;99582.34;;;26.57;44.00
13013;BME280;22580;57.670;12.006;2023-09-19T12:06:18;99597.88;;;26.80;42.36
13013;BME280;22580;57.670;12.006;2023-09-19T12:08:48;99599.53;;;25.64;44.37
13013;BME280;22580;57.670;12.006;2023-09-19T12:11:17;99586.16;;;25.86;44.98
13013;BME280;22580;57.670;12.006;2023-09-19T12:13:48;99589.06;;;26.77;44.62
13013;BME280;22580;57.670;12.006;2023-09-19T12:16:16;99593.28;;;27.54;42.12
13013;BME280;22580;57.670;12.006;2023-09-19T12:18:47;99581.72;;;27.52;42.83
13013;BME280;22580;57.670;12.006;2023-09-19T12:21:26;99587.28;;;27.68;43.04
13013;BME280;22580;57.670;12.006;2023-09-19T12:24:13;99585.00;;;27.82;42.83
13013;BME280;22580;57.670;12.006;2023-09-19T12:26:45;99599.13;;;27.74;42.69
13013;BME280;22580;57.670;12.006;2023-09-19T12:29:16;99585.41;;;27.74;42.47
13013;BME280;22580;57.670;12.006;2023-09-19T12:31:51;99607.91;;;27.71;43.46
13013;BME280;22580;57.670;12.006;2023-09-19T12:34:22;99599.41;;;27.89;43.71
13013;BME280;22580;57.670;12.006;2023-09-19T12:37:04;99600.56;;;27.31;43.00
13013;BME280;22580;57.670;12.006;2023-09-19T12:39:37;99593.09;;;27.72;43.46
13013;BME280;22580;57.670;12.006;2023-09-19T12:42:07;99603.13;;;28.00;42.86
13013;BME280;22580;57.670;12.006;2023-09-19T12:44:37;99596.66;;;28.06;42.69
13013;BME280;22580;57.670;12.006;2023-09-19T12:47:10;99594.75;;;27.73;43.47
13013;BME280;22580;57.670;12.006;2023-09-19T12:50:13;99605.81;;;27.95;43.15
13013;BME280;22580;57.670;12.006;2023-09-19T12:52:56;99601.81;;;27.86;43.15
13013;BME280;22580;57.670;12.006;2023-09-19T12:55:27;99584.25;;;27.25;44.16
13013;BME280;22580;57.670;12.006;2023-09-19T12:57:59;99568.84;;;27.52;44.33
13013;BME280;22580;57.670;12.006;2023-09-19T13:00:39;99585.63;;;27.10;45.02
13013;BME280;22580;57.670;12.006;2023-09-19T13:03:11;99594.75;;;27.28;44.70
13013;BME280;22580;57.670;12.006;2023-09-19T13:05:51;99595.38;;;27.18;45.61
13013;BME280;22580;57.670;12.006;2023-09-19T13:08:21;99587.97;;;27.19;44.72
13013;BME280;22580;57.670;12.006;2023-09-19T13:11:09;99583.13;;;27.37;45.16
13013;BME280;22580;57.670;12.006;2023-09-19T13:13:39;99574.88;;;27.66;44.20
13013;BME280;22580;57.670;12.006;2023-09-19T13:16:10;99577.53;;;27.61;43.76
13013;BME280;22580;57.670;12.006;2023-09-19T13:18:44;99566.50;;;27.44;43.51